Time;durP1;ratioP1;P1;durP2;ratioP2;P2;SDS_P1;SDS_P2;PMS_P1;PMS_P2;Temp;Humidity;BMP_temperature;BMP_pressure;BME280_temperature;BME280_humidity;BME280_pressure;Samples;Min_cycle;Max_cycle;Signal;HPM_P1;HPM_P2
2023/01/18 00:01:02;;;;;;;4.85;2.12;;;;;;;9.18;78.71;95146.50;5346691;26;20060;-82
2023/01/18 00:03:32;;;;;;;;;;;;;;;9.56;76.65;95153.56;5346754;26;20055;-82
2023/01/18 00:06:03;;;;;;;6.78;2.35;;;;;;;9.51;76.67;95141.09;5346716;26;19960;-82
2023/01/18 00:08:32;;;;;;;6.53;2.22;;;;;;;9.52;76.09;95163.31;5346650;26;20485;-82
2023/01/18 00:11:07;;;;;;;7.53;2.20;;;;;;;9.44;76.31;95178.56;5346236;26;20122;-82
2023/01/18 00:13:34;;;;;;;5.30;2.25;;;;;;;9.05;77.72;95181.91;5346496;26;20141;-82
2023/01/18 00:16:14;;;;;;;7.40;2.30;;;;;;;8.62;80.83;95205.94;5346268;26;20126;-82
2023/01/18 00:18:41;;;;;;;6.85;2.58;;;;;;;8.31;82.77;95215.22;5346727;26;20066;-82
2023/01/18 00:21:10;;;;;;;5.45;2.20;;;;;;;8.40;82.97;95217.13;5326872;26;20177;-82
2023/01/18 00:23:38;;;;;;;10.23;2.75;;;;;;;8.69;81.19;95207.87;5346303;26;20101;-82
2023/01/18 00:26:07;;;;;;;6.80;2.60;;;;;;;8.82;79.66;95210.28;5346699;26;20118;-82
2023/01/18 00:28:35;;;;;;;9.55;2.90;;;;;;;8.95;77.97;95197.25;5346646;26;20460;-82
2023/01/18 00:31:08;;;;;;;5.65;2.40;;;;;;;8.81;79.27;95187.25;5346072;26;20056;-82
2023/01/18 00:33:35;;;;;;;6.95;2.65;;;;;;;9.23;77.68;95176.03;5346466;26;20059;-82
2023/01/18 00:36:03;;;;;;;6.55;2.75;;;;;;;9.87;74.29;95164.66;5346478;26;20061;-82
2023/01/18 00:38:30;;;;;;;7.72;3.00;;;;;;;9.96;72.64;95168.19;5346124;26;20107;-82
2023/01/18 00:40:57;;;;;;;9.07;3.17;;;;;;;10.08;71.94;95162.00;5346862;26;20052;-82
2023/01/18 00:43:39;;;;;;;6.72;2.53;;;;;;;8.99;75.89;95153.16;5346607;26;20044;-82
2023/01/18 00:46:14;;;;;;;7.95;3.20;;;;;;;9.46;75.38;95137.25;5346598;26;20419;-82
2023/01/18 00:48:41;;;;;;;7.40;3.12;;;;;;;10.07;70.85;95144.91;5346860;26;20060;-82
2023/01/18 00:51:10;;;;;;;7.90;2.90;;;;;;;9.12;75.98;95150.38;5346138;26;20742;-82
2023/01/18 00:53:38;;;;;;;6.65;3.05;;;;;;;9.37;74.71;95144.03;5326657;26;20477;-82
2023/01/18 00:56:09;;;;;;;9.57;3.20;;;;;;;9.36;74.55;95154.41;5346522;26;20064;-82
2023/01/18 00:58:37;;;;;;;8.48;3.22;;;;;;;9.01;76.59;95163.31;5346088;26;20056;-82
2023/01/18 01:01:07;;;;;;;8.20;3.20;;;;;;;8.83;78.41;95170.78;5346445;26;20063;-82
2023/01/18 01:06:44;;;;;;;8.65;3.15;;;;;;;9.78;74.10;95144.81;5345886;26;20024;-82
2023/01/18 01:09:23;;;;;;;8.45;3.55;;;;;;;10.04;72.10;95140.03;5329817;26;20060;-82
2023/01/18 01:28:27;;;;;;;9.50;3.65;;;;;;;9.68;73.30;95198.06;5346679;26;20060;-82
2023/01/18 01:30:59;;;;;;;8.25;3.30;;;;;;;10.05;71.75;95209.44;5346417;26;20056;-82
2023/01/18 01:33:27;;;;;;;9.43;3.40;;;;;;;9.13;75.85;95220.66;5345997;26;20075;-82
2023/01/18 01:35:58;;;;;;;8.18;3.20;;;;;;;8.04;81.75;95231.03;5346493;26;20041;-82
2023/01/18 01:38:26;;;;;;;8.70;3.72;;;;;;;8.19;83.27;95245.25;5327082;26;20064;-82
2023/01/18 01:41:07;;;;;;;9.27;3.22;;;;;;;7.99;83.87;95240.84;5326073;26;20113;-82
2023/01/18 01:43:43;;;;;;;8.05;3.20;;;;;;;8.32;81.78;95235.66;5346410;26;20109;-82
2023/01/18 01:46:30;;;;;;;7.87;2.62;;;;;;;7.70;84.92;95222.53;5346591;26;20045;-82
2023/01/18 01:49:17;;;;;;;10.13;3.93;;;;;;;8.52;81.12;95230.75;5346054;26;20118;-82
2023/01/18 01:52:04;;;;;;;9.93;3.50;;;;;;;8.51;81.21;95234.25;5346279;26;20064;-82
2023/01/18 01:54:43;;;;;;;9.52;3.58;;;;;;;8.36;81.92;95237.06;5345922;26;20053;-82
2023/01/18 01:57:37;;;;;;;9.57;3.28;;;;;;;8.61;80.15;95241.12;5346494;26;20043;-82
2023/01/18 02:00:08;;;;;;;8.00;3.08;;;;;;;9.16;77.35;95234.09;5346290;26;20067;-82
2023/01/18 02:02:35;;;;;;;8.50;2.97;;;;;;;9.15;77.05;95231.66;5345857;26;20057;-82
2023/01/18 02:05:05;;;;;;;7.12;2.90;;;;;;;9.50;75.08;95228.72;5326588;26;20119;-82
2023/01/18 02:07:32;;;;;;;8.18;2.80;;;;;;;9.84;73.24;95206.94;5322471;27;20053;-82
2023/01/18 02:09:59;;;;;;;8.63;3.00;;;;;;;9.83;73.35;95220.75;5322287;27;20427;-82
2023/01/18 02:12:27;;;;;;;8.63;3.10;;;;;;;9.70;74.54;95217.59;5324139;26;20061;-82
2023/01/18 02:14:54;;;;;;;7.47;3.10;;;;;;;9.68;73.78;95216.91;5322040;27;20049;-82
2023/01/18 02:17:52;;;;;;;10.48;3.87;;;;;;;9.56;74.54;95218.72;5323751;26;20048;-82
2023/01/18 02:20:43;;;;;;;10.07;3.20;;;;;;;10.00;72.85;95206.47;5322557;27;20375;-82
2023/01/18 02:23:33;;;;;;;9.98;3.58;;;;;;;9.78;73.50;95189.44;5322210;27;20118;-82
2023/01/18 02:26:45;;;;;;;9.45;3.50;;;;;;;10.26;71.09;95203.41;5324137;26;20049;-82
2023/01/18 02:29:37;;;;;;;8.95;3.33;;;;;;;9.90;72.48;95205.59;5323639;27;20367;-82
2023/01/18 02:32:20;;;;;;;9.23;3.35;;;;;;;9.70;73.67;95201.34;5278600;26;20110;-82
2023/01/18 02:34:49;;;;;;;8.82;3.35;;;;;;;9.61;73.54;95199.53;5323951;26;20122;-82
2023/01/18 02:37:20;;;;;;;8.45;3.37;;;;;;;9.84;73.23;95188.09;5322148;27;20053;-82
2023/01/18 02:39:58;;;;;;;10.85;4.22;;;;;;;10.07;72.11;95189.50;5323778;26;20044;-82
2023/01/18 02:48:02;;;;;;;9.98;3.53;;;;;;;10.13;72.11;95173.53;5323824;26;20048;-82
2023/01/18 02:50:29;;;;;;;11.12;3.50;;;;;;;9.17;74.44;95161.13;5321991;27;20044;-82
2023/01/18 02:52:56;;;;;;;9.55;3.92;;;;;;;10.46;71.57;95166.41;5322433;27;20060;-82
2023/01/18 02:55:41;;;;;;;10.63;3.90;;;;;;;10.76;69.33;95169.81;5323805;26;20063;-82
2023/01/18 02:58:28;;;;;;;10.23;3.90;;;;;;;10.64;68.78;95174.31;5323458;26;20399;-82
2023/01/18 03:01:06;;;;;;;11.73;4.40;;;;;;;10.70;68.40;95171.16;5323564;26;20060;-82
2023/01/18 03:03:34;;;;;;;9.18;3.80;;;;;;;10.28;70.81;95171.41;5323672;26;20064;-82
2023/01/18 03:06:02;;;;;;;9.70;3.45;;;;;;;10.80;68.98;95173.75;5323459;26;20066;-82
2023/01/18 03:08:43;;;;;;;8.15;3.20;;;;;;;11.19;66.86;95157.25;5326079;26;20104;-82
2023/01/18 03:11:17;;;;;;;9.90;3.75;;;;;;;11.15;66.74;95161.06;5325885;26;20098;-81
2023/01/18 03:14:15;;;;;;;9.45;3.70;;;;;;;10.99;67.11;95174.53;5345767;26;20086;-81
2023/01/18 03:17:05;;;;;;;9.80;3.17;;;;;;;11.20;65.62;95179.53;5345877;26;20106;-81
2023/01/18 03:25:25;;;;;;;9.30;3.00;;;;;;;9.82;72.13;95177.13;5345449;26;20126;-81
2023/01/18 03:33:44;;;;;;;10.77;3.42;;;;;;;10.22;71.53;95208.03;5329645;26;20044;-81
2023/01/18 03:36:16;;;;;;;8.35;3.08;;;;;;;10.40;71.26;95213.34;5329714;26;20064;-81
2023/01/18 03:38:46;;;;;;;10.05;3.50;;;;;;;10.35;71.63;95218.91;5327126;26;20547;-81
2023/01/18 03:41:14;;;;;;;8.88;3.15;;;;;;;10.09;72.22;95207.41;5326303;26;20056;-81
2023/01/18 03:43:41;;;;;;;9.50;3.10;;;;;;;11.14;68.27;95208.47;5346826;26;20052;-81
2023/01/18 03:46:08;;;;;;;9.05;3.65;;;;;;;11.28;68.38;95215.78;5346510;26;20071;-81
2023/01/18 03:48:35;;;;;;;16.80;5.10;;;;;;;11.34;66.58;95217.00;5346895;26;20131;-81
2023/01/18 03:51:16;;;;;;;17.62;5.65;;;;;;;11.66;64.26;95221.81;5326863;26;20126;-81
2023/01/18 03:53:49;;;;;;;7.65;3.08;;;;;;;11.22;65.91;95236.19;5346437;26;20048;-81
2023/01/18 03:56:32;;;;;;;7.80;2.90;;;;;;;11.07;66.15;95251.28;5346967;26;20064;-81
2023/01/18 03:59:02;;;;;;;9.00;3.00;;;;;;;10.66;67.42;95260.06;5346815;26;20068;-81
2023/01/18 04:01:29;;;;;;;8.38;2.90;;;;;;;10.00;70.88;95260.56;5326459;26;20067;-80
2023/01/18 04:03:56;;;;;;;7.97;3.03;;;;;;;9.68;72.47;95263.25;5346501;26;20110;-81
2023/01/18 04:06:24;;;;;;;8.40;3.10;;;;;;;9.33;74.77;95265.31;5346334;26;20060;-81
2023/01/18 04:08:52;;;;;;;7.72;3.12;;;;;;;9.48;74.00;95267.47;5346484;26;20060;-81
2023/01/18 04:11:19;;;;;;;10.23;3.40;;;;;;;9.43;74.21;95274.75;5346609;26;20055;-81
2023/01/18 04:13:45;;;;;;;8.32;3.12;;;;;;;9.52;73.15;95266.25;5346714;26;20044;-80
2023/01/18 04:16:12;;;;;;;;;;;;;;;9.45;73.66;95272.84;5346659;26;20056;-81
2023/01/18 04:18:39;;;;;;;7.50;2.90;;;;;;;9.64;72.63;95279.88;5346805;26;19983;-81
2023/01/18 04:21:06;;;;;;;8.93;3.22;;;;;;;10.04;71.04;95285.09;5346415;26;20075;-81
2023/01/18 04:23:33;;;;;;;8.73;3.20;;;;;;;10.39;68.93;95281.31;5346349;26;20615;-81
2023/01/18 04:26:00;;;;;;;8.02;3.08;;;;;;;10.26;69.50;95276.37;5346673;26;20072;-81
2023/01/18 04:28:27;;;;;;;8.80;3.03;;;;;;;10.06;70.05;95277.22;5346436;26;20056;-81
2023/01/18 04:30:55;;;;;;;8.50;2.78;;;;;;;9.64;71.91;95274.72;5346502;26;20690;-81
2023/01/18 04:33:25;;;;;;;9.45;2.95;;;;;;;9.35;72.92;95281.44;5346735;26;20127;-81
2023/01/18 04:35:55;;;;;;;7.10;2.67;;;;;;;9.01;75.17;95281.63;5346313;26;20074;-81
2023/01/18 04:38:22;;;;;;;6.00;2.53;;;;;;;8.56;78.05;95289.47;5346337;26;20060;-81
2023/01/18 04:40:49;;;;;;;7.28;2.80;;;;;;;8.97;76.82;95293.09;5346342;26;20053;-81
2023/01/18 04:43:16;;;;;;;7.68;2.70;;;;;;;9.35;74.59;95294.31;5346134;26;20051;-81
2023/01/18 04:45:53;;;;;;;8.10;2.90;;;;;;;9.68;72.85;95293.34;5346662;26;20402;-81
2023/01/18 04:48:19;;;;;;;6.45;2.30;;;;;;;9.90;71.71;95261.47;5346772;26;20076;-81
2023/01/18 04:50:47;;;;;;;7.57;2.62;;;;;;;9.56;72.28;95241.88;5346079;26;20052;-81
2023/01/18 04:53:15;;;;;;;7.45;2.50;;;;;;;10.26;69.27;95273.00;5346632;26;20323;-81
2023/01/18 04:55:42;;;;;;;8.75;2.70;;;;;;;10.21;69.29;95275.09;5346531;26;20114;-81
2023/01/18 04:58:09;;;;;;;7.47;2.53;;;;;;;10.06;70.02;95283.19;5326456;26;20133;-81
2023/01/18 05:00:39;;;;;;;6.45;2.35;;;;;;;9.77;71.33;95274.53;5346292;26;20060;-81
2023/01/18 05:03:08;;;;;;;5.85;2.40;;;;;;;9.63;72.36;95288.53;5346658;26;20098;-81
2023/01/18 05:05:35;;;;;;;10.60;2.97;;;;;;;9.66;71.96;95303.72;5346181;26;20052;-81
2023/01/18 05:08:02;;;;;;;7.10;2.78;;;;;;;9.54;72.54;95310.72;5326705;26;20064;-81
2023/01/18 05:10:29;;;;;;;7.72;2.47;;;;;;;8.99;74.86;95324.66;5346070;26;20060;-81
2023/01/18 05:12:56;;;;;;;6.87;2.60;;;;;;;8.16;80.30;95324.28;5346651;26;20044;-81
2023/01/18 05:15:23;;;;;;;7.03;2.37;;;;;;;8.21;80.71;95333.28;5346431;26;20466;-81
2023/01/18 05:17:50;;;;;;;;;;;;;;;7.88;81.79;95335.84;5346616;26;20322;-81
2023/01/18 05:20:17;;;;;;;6.07;2.53;;;;;;;8.11;81.58;95333.16;5346214;26;19955;-81
2023/01/18 05:22:44;;;;;;;6.72;2.62;;;;;;;8.44;80.30;95323.84;5346641;26;20045;-81
2023/01/18 05:25:10;;;;;;;;;;;;;;;8.97;78.27;95311.09;5346327;26;20057;-81
2023/01/18 05:27:37;;;;;;;7.72;2.55;;;;;;;9.16;75.42;95323.31;5346674;26;20008;-81
2023/01/18 05:30:04;;;;;;;;;;;;;;;9.18;75.63;95317.09;5346815;26;20089;-81
2023/01/18 05:32:32;;;;;;;6.05;2.30;;;;;;;9.42;74.45;95310.91;5346363;26;19996;-82
2023/01/18 05:34:59;;;;;;;;;;;;;;;8.81;76.87;95324.34;5346748;26;20064;-82
2023/01/18 05:37:26;;;;;;;6.22;2.20;;;;;;;8.82;76.90;95318.25;5346596;26;19968;-81
2023/01/18 05:39:52;;;;;;;;;;;;;;;8.39;79.01;95302.81;5346200;26;20098;-82
2023/01/18 05:42:19;;;;;;;6.15;2.25;;;;;;;8.48;79.67;95299.53;5346575;26;20320;-82
2023/01/18 05:44:46;;;;;;;;;;;;;;;8.58;79.12;95305.59;5346588;26;20451;-81
2023/01/18 05:47:13;;;;;;;8.48;2.80;;;;;;;8.80;77.12;95317.56;5346145;26;20310;-81
2023/01/18 05:49:40;;;;;;;8.98;2.40;;;;;;;8.68;76.85;95315.97;5346286;26;20089;-82
2023/01/18 05:52:07;;;;;;;8.23;2.60;;;;;;;8.43;78.06;95317.06;5346500;26;20039;-82
2023/01/18 05:54:34;;;;;;;7.10;2.25;;;;;;;8.00;80.07;95322.06;5345835;26;20438;-81
2023/01/18 05:57:01;;;;;;;4.87;2.00;;;;;;;7.88;80.93;95325.56;5346341;26;20099;-81
2023/01/18 05:59:28;;;;;;;;;;;;;;;8.21;78.66;95328.16;5346381;26;20386;-80
2023/01/18 06:01:55;;;;;;;3.90;1.42;;;;;;;8.42;77.98;95328.28;5346245;26;19995;-81
2023/01/18 06:04:22;;;;;;;4.12;1.65;;;;;;;8.55;76.52;95323.81;5346343;26;20075;-81
2023/01/18 06:06:49;;;;;;;1.80;1.12;;;;;;;8.63;74.81;95330.94;5345702;26;20061;-81
2023/01/18 06:09:16;;;;;;;;;;;;;;;8.66;74.92;95346.94;5346679;26;20394;-81
2023/01/18 06:11:42;;;;;;;3.15;1.40;;;;;;;8.87;74.11;95339.28;5346276;26;20042;-82
2023/01/18 06:14:09;;;;;;;2.87;1.15;;;;;;;8.52;75.79;95351.53;5345928;26;20713;-81
2023/01/18 06:16:36;;;;;;;3.03;0.98;;;;;;;8.33;76.98;95364.94;5346371;26;20056;-81
2023/01/18 06:19:04;;;;;;;3.00;1.35;;;;;;;8.51;76.34;95373.03;5346292;26;20371;-82
2023/01/18 06:21:31;;;;;;;3.42;1.30;;;;;;;8.36;77.18;95375.81;5345539;26;20105;-80
2023/01/18 06:23:58;;;;;;;1.77;1.12;;;;;;;8.40;76.68;95368.69;5346287;26;20060;-81
2023/01/18 06:26:25;;;;;;;4.55;1.20;;;;;;;8.42;76.31;95366.00;5346329;26;20056;-81
2023/01/18 06:28:52;;;;;;;2.60;1.10;;;;;;;8.25;77.28;95380.09;5345710;26;20052;-81
2023/01/18 06:31:22;;;;;;;1.67;1.02;;;;;;;8.24;77.67;95389.56;5345717;26;20049;-81
2023/01/18 06:33:49;;;;;;;2.58;1.10;;;;;;;8.34;77.32;95400.81;5326230;26;20060;-79
2023/01/18 06:36:16;;;;;;;2.78;1.00;;;;;;;8.60;75.66;95385.13;5345669;26;20052;-79
2023/01/18 06:38:42;;;;;;;;;;;;;;;8.63;76.06;95387.50;5346298;26;20045;-79
2023/01/18 06:41:09;;;;;;;1.83;0.90;;;;;;;8.96;74.40;95381.47;5345812;26;19962;-81
2023/01/18 06:43:36;;;;;;;1.05;0.80;;;;;;;9.27;72.24;95403.03;5345517;26;20389;-81
2023/01/18 06:46:06;;;;;;;;;;;;;;;9.59;70.44;95417.66;5346516;26;20072;-81
2023/01/18 06:48:33;;;;;;;3.72;1.40;;;;;;;9.07;72.14;95419.22;5345622;26;19970;-81
2023/01/18 06:51:00;;;;;;;3.05;1.10;;;;;;;8.85;73.88;95435.50;5326051;26;20493;-81
2023/01/18 06:53:27;;;;;;;1.83;0.95;;;;;;;8.85;74.35;95445.78;5345861;26;20118;-79
2023/01/18 06:55:58;;;;;;;2.47;1.10;;;;;;;8.28;77.42;95449.22;5345601;26;20065;-79
2023/01/18 06:58:26;;;;;;;3.10;1.25;;;;;;;8.10;78.81;95454.00;5326105;26;20052;-79
2023/01/18 07:00:57;;;;;;;2.17;1.20;;;;;;;7.91;79.91;95469.94;5325893;26;20098;-79
2023/01/18 07:03:24;;;;;;;3.12;1.20;;;;;;;8.01;80.17;95477.78;5346257;26;20109;-79
2023/01/18 07:05:59;;;;;;;6.28;1.17;;;;;;;8.21;78.54;95481.44;5346514;26;20118;-79
2023/01/18 07:08:26;;;;;;;5.47;1.50;;;;;;;7.98;80.08;95490.84;5346838;26;20048;-79
2023/01/18 07:10:54;;;;;;;4.43;1.65;;;;;;;8.40;78.79;95492.84;5346098;26;20067;-79
2023/01/18 07:13:21;;;;;;;5.70;1.73;;;;;;;8.38;78.30;95504.97;5346744;26;20447;-79
2023/01/18 07:15:56;;;;;;;4.28;1.67;;;;;;;8.04;80.69;95506.59;5346722;26;20083;-79
2023/01/18 07:18:27;;;;;;;7.18;1.87;;;;;;;8.41;79.29;95506.50;5346028;26;20052;-78
2023/01/18 07:21:07;;;;;;;4.75;1.62;;;;;;;8.17;80.59;95506.53;5345809;26;20054;-79
2023/01/18 07:23:36;;;;;;;5.40;1.90;;;;;;;7.89;81.92;95506.91;5326890;26;20068;-81
2023/01/18 07:26:14;;;;;;;4.53;1.90;;;;;;;7.85;82.58;95514.00;5346246;26;20053;-80
2023/01/18 07:28:45;;;;;;;7.50;2.10;;;;;;;7.86;82.55;95517.38;5346494;26;20443;-80
2023/01/18 07:31:13;;;;;;;6.18;2.25;;;;;;;7.88;83.45;95516.38;5346101;26;20082;-81
2023/01/18 07:33:40;;;;;;;7.30;2.08;;;;;;;8.11;82.00;95522.41;5346571;26;20075;-81
2023/01/18 07:36:09;;;;;;;6.65;2.15;;;;;;;8.05;82.21;95525.41;5346761;26;20075;-81
2023/01/18 07:38:37;;;;;;;7.07;2.22;;;;;;;8.17;80.92;95532.22;5346164;26;20124;-81
2023/01/18 07:41:13;;;;;;;7.55;2.50;;;;;;;8.39;80.53;95536.63;5346649;26;20115;-81
2023/01/18 07:43:42;;;;;;;8.00;2.70;;;;;;;8.73;78.77;95539.28;5346556;26;20068;-81
2023/01/18 07:46:11;;;;;;;5.65;2.10;;;;;;;8.83;78.83;95524.78;5326720;26;20081;-82
2023/01/18 07:48:38;;;;;;;5.80;2.45;;;;;;;8.58;79.40;95520.66;5346124;26;20064;-81
2023/01/18 07:51:07;;;;;;;5.68;1.95;;;;;;;9.20;76.71;95521.03;5346434;26;20064;-81
2023/01/18 07:53:36;;;;;;;5.12;2.03;;;;;;;9.36;76.68;95524.97;5346228;26;20064;-81
2023/01/18 07:56:07;;;;;;;7.30;2.30;;;;;;;9.25;75.47;95526.66;5346709;26;20052;-79
2023/01/18 07:58:35;;;;;;;5.30;2.00;;;;;;;11.11;67.65;95554.53;5346609;26;20103;-79
2023/01/18 08:01:04;;;;;;;4.82;1.92;;;;;;;11.09;67.15;95560.78;5345937;26;20048;-79
2023/01/18 08:03:31;;;;;;;4.10;1.40;;;;;;;11.18;66.27;95573.72;5346591;26;20064;-81
2023/01/18 08:05:59;;;;;;;4.05;1.70;;;;;;;10.04;69.37;95598.56;5346313;26;20056;-79
2023/01/18 08:08:27;;;;;;;3.47;1.50;;;;;;;9.65;71.89;95617.94;5346413;26;20052;-78
2023/01/18 08:10:55;;;;;;;2.53;1.12;;;;;;;9.11;74.45;95639.25;5346352;26;20044;-79
2023/01/18 08:13:23;;;;;;;4.12;1.50;;;;;;;8.19;79.63;95661.38;5345615;26;20402;-79
2023/01/18 08:15:54;;;;;;;5.60;1.77;;;;;;;8.36;79.83;95673.03;5346652;26;20087;-80
2023/01/18 08:18:22;;;;;;;9.95;1.98;;;;;;;8.22;80.74;95676.56;5346584;26;20059;-79
2023/01/18 08:20:49;;;;;;;5.53;1.80;;;;;;;8.43;80.40;95673.41;5345947;26;20044;-79
2023/01/18 08:23:16;;;;;;;4.37;1.95;;;;;;;8.44;80.08;95682.75;5346525;26;20060;-80
2023/01/18 08:25:43;;;;;;;3.33;1.37;;;;;;;7.28;86.15;95685.69;5346436;26;20425;-80
2023/01/18 08:28:10;;;;;;;4.15;1.42;;;;;;;7.45;86.11;95675.94;5326286;26;20052;-80
2023/01/18 08:30:39;;;;;;;3.28;1.50;;;;;;;7.81;84.89;95664.87;5346452;26;20151;-78
2023/01/18 08:33:07;;;;;;;3.37;1.40;;;;;;;8.17;82.75;95673.47;5346414;26;20053;-79
2023/01/18 08:35:47;;;;;;;4.87;1.80;;;;;;;7.93;84.17;95675.22;5346043;26;20057;-79
2023/01/18 08:38:15;;;;;;;3.53;1.52;;;;;;;8.47;81.94;95683.34;5346242;26;20056;-79
2023/01/18 08:40:42;;;;;;;3.97;1.50;;;;;;;8.03;83.30;95696.75;5346172;26;20051;-79
2023/01/18 08:43:10;;;;;;;3.90;1.33;;;;;;;7.85;84.54;95698.84;5346145;26;20445;-79
2023/01/18 08:45:37;;;;;;;3.72;1.50;;;;;;;8.07;84.01;95701.56;5346419;26;20049;-79
2023/01/18 08:48:08;;;;;;;4.03;1.67;;;;;;;7.84;84.55;95708.28;5345994;26;20109;-80
2023/01/18 08:50:35;;;;;;;3.90;1.60;;;;;;;7.83;85.39;95713.53;5326799;26;20564;-79
2023/01/18 08:53:03;;;;;;;5.10;1.95;;;;;;;8.12;83.69;95730.31;5346421;26;20397;-79
2023/01/18 08:55:30;;;;;;;6.05;2.10;;;;;;;8.42;82.58;95734.28;5345895;26;20189;-80
2023/01/18 08:57:57;;;;;;;7.50;2.25;;;;;;;8.36;84.02;95747.53;5346383;26;20052;-79
2023/01/18 09:00:28;;;;;;;4.15;1.62;;;;;;;9.10;79.50;95749.03;5346239;26;20105;-81
2023/01/18 09:02:56;;;;;;;5.43;1.70;;;;;;;9.47;79.61;95754.87;5345844;26;20378;-83
2023/01/18 09:05:25;;;;;;;3.75;1.67;;;;;;;9.88;77.71;95755.25;5346806;26;20052;-81
2023/01/18 09:07:53;;;;;;;5.28;1.70;;;;;;;9.84;77.18;95754.66;5345886;26;20326;-80
2023/01/18 09:10:21;;;;;;;2.95;1.40;;;;;;;10.47;74.15;95745.50;5345884;26;20044;-80
2023/01/18 09:12:48;;;;;;;4.87;1.70;;;;;;;10.54;72.98;95740.69;5346434;26;20090;-81
2023/01/18 09:15:17;;;;;;;3.60;1.42;;;;;;;10.27;71.62;95752.22;5346361;26;20056;-81
2023/01/18 09:17:45;;;;;;;3.05;1.50;;;;;;;9.88;74.16;95753.47;5345929;26;20048;-82
2023/01/18 09:20:12;;;;;;;4.03;1.30;;;;;;;9.81;74.53;95773.75;5346192;26;20047;-82
2023/01/18 09:22:39;;;;;;;3.40;1.52;;;;;;;9.98;73.28;95779.34;5346245;26;20080;-81
2023/01/18 09:25:06;;;;;;;2.40;1.20;;;;;;;9.89;74.28;95786.06;5345530;26;20064;-82
2023/01/18 09:27:33;;;;;;;2.70;1.35;;;;;;;10.03;74.89;95790.16;5346160;26;20044;-80
2023/01/18 09:29:59;;;;;;;3.10;1.40;;;;;;;10.30;73.27;95798.34;5345817;26;20395;-80
2023/01/18 09:32:26;;;;;;;4.90;1.58;;;;;;;9.89;73.35;95788.63;5346286;26;20064;-80
2023/01/18 09:34:54;;;;;;;3.42;1.60;;;;;;;9.55;74.92;95803.19;5346286;26;20312;-80
2023/01/18 09:37:21;;;;;;;5.15;1.50;;;;;;;9.66;75.85;95805.78;5345821;26;20051;-81
2023/01/18 09:39:48;;;;;;;;;;;;;;;9.41;77.82;95818.84;5346452;26;20102;-80
2023/01/18 09:42:24;;;;;;;2.95;1.30;;;;;;;9.57;77.43;95822.75;5346423;26;20001;-80
2023/01/18 09:44:57;;;;;;;4.97;1.60;;;;;;;9.50;76.25;95828.47;5345794;26;20060;-80
2023/01/18 09:47:27;;;;;;;3.65;1.65;;;;;;;9.04;77.53;95836.97;5346481;26;20059;-81
2023/01/18 09:49:56;;;;;;;5.15;1.87;;;;;;;8.98;79.39;95863.94;5326446;26;20049;-81
2023/01/18 09:52:31;;;;;;;3.28;1.60;;;;;;;8.88;80.54;95864.69;5345904;26;20056;-81
2023/01/18 09:54:58;;;;;;;6.00;1.85;;;;;;;8.86;80.05;95869.13;5346015;26;20060;-80
2023/01/18 09:57:36;;;;;;;;;;;;;;;9.23;79.24;95872.47;5346624;26;20052;-81
2023/01/18 10:00:19;;;;;;;4.65;1.70;;;;;;;9.31;77.76;95871.91;5326571;26;19951;-82
2023/01/18 10:02:48;;;;;;;4.93;1.90;;;;;;;8.87;80.32;95881.88;5346000;26;20407;-81
2023/01/18 10:05:22;;;;;;;4.53;2.05;;;;;;;8.84;82.32;95883.84;5345889;26;20056;-83
2023/01/18 10:08:03;;;;;;;6.10;2.30;;;;;;;9.52;78.23;95873.75;5326684;26;20394;-81
2023/01/18 10:10:37;;;;;;;7.93;2.40;;;;;;;9.52;77.04;95886.63;5346423;26;20048;-80
2023/01/18 10:13:21;;;;;;;6.50;2.40;;;;;;;9.91;77.17;95892.37;5325927;26;20399;-81
2023/01/18 10:15:48;;;;;;;6.35;2.45;;;;;;;10.07;75.52;95886.88;5346224;26;20056;-81
2023/01/18 10:18:16;;;;;;;7.35;2.65;;;;;;;10.32;73.57;95897.03;5346076;26;20066;-81
2023/01/18 10:20:50;;;;;;;7.37;2.55;;;;;;;10.18;75.73;95899.78;5325826;26;20466;-81
2023/01/18 10:23:40;;;;;;;5.97;2.17;;;;;;;9.96;75.91;95917.78;5326250;26;20057;-81
2023/01/18 10:26:20;;;;;;;4.65;1.80;;;;;;;9.67;77.29;95925.88;5326200;26;20410;-81
2023/01/18 10:29:02;;;;;;;4.07;1.70;;;;;;;10.76;72.14;95920.34;5326428;26;20406;-81
2023/01/18 10:31:57;;;;;;;5.25;2.00;;;;;;;10.27;73.13;95916.34;5326399;26;20060;-81
2023/01/18 10:34:33;;;;;;;4.22;1.87;;;;;;;10.22;74.75;95918.47;5325883;26;20060;-81
2023/01/18 10:37:27;;;;;;;4.20;1.90;;;;;;;10.56;72.21;95924.44;5345510;26;20101;-81
2023/01/18 10:39:59;;;;;;;3.40;1.75;;;;;;;11.23;69.07;95912.28;5346021;26;20049;-81
2023/01/18 10:42:33;;;;;;;4.85;1.90;;;;;;;11.12;72.01;95916.66;5345613;26;20049;-81
2023/01/18 10:45:00;;;;;;;4.32;1.87;;;;;;;11.70;67.94;95907.69;5326246;26;20069;-81
2023/01/18 10:47:27;;;;;;;4.62;1.73;;;;;;;11.75;66.75;95915.84;5345704;26;20430;-81
2023/01/18 10:49:58;;;;;;;4.80;1.98;;;;;;;12.12;64.79;95912.88;5345800;26;20048;-82
2023/01/18 10:52:28;;;;;;;4.62;2.42;;;;;;;11.60;67.62;95911.94;5345882;26;20097;-81
2023/01/18 10:55:00;;;;;;;5.12;2.10;;;;;;;10.77;71.22;95920.22;5325716;26;20083;-81
2023/01/18 10:57:48;;;;;;;3.22;1.73;;;;;;;10.90;68.90;95922.69;5345965;26;20071;-81
2023/01/18 11:00:22;;;;;;;;;;;;;;;10.63;71.04;95931.63;5346194;26;20062;-81
2023/01/18 11:02:50;;;;;;;4.90;1.80;;;;;;;10.25;73.60;95934.50;5325928;26;19955;-80
2023/01/18 11:05:27;;;;;;;3.72;1.67;;;;;;;10.26;73.42;95928.41;5345759;26;20070;-81
2023/01/18 11:08:11;;;;;;;;;;;;;;;11.63;69.73;95932.34;5326387;26;20060;-82
2023/01/18 11:10:40;;;;;;;4.30;1.70;;;;;;;12.09;64.32;95936.38;5325920;26;19959;-82
2023/01/18 11:13:29;;;;;;;4.75;1.90;;;;;;;11.42;67.83;95936.66;5345881;26;20048;-81
2023/01/18 11:16:12;;;;;;;2.87;1.40;;;;;;;12.27;63.90;95954.75;5345691;26;20060;-81
2023/01/18 11:19:03;;;;;;;4.45;1.70;;;;;;;12.37;63.87;95956.44;5345863;26;20075;-82
2023/01/18 11:21:44;;;;;;;3.40;1.37;;;;;;;13.19;60.29;95971.97;5345582;26;20056;-81
2023/01/18 11:24:23;;;;;;;4.12;1.58;;;;;;;13.23;60.04;95975.09;5325634;26;20127;-82
2023/01/18 11:27:02;;;;;;;2.75;1.20;;;;;;;13.83;58.43;95975.88;5326370;26;20087;-82
2023/01/18 11:29:33;;;;;;;2.37;1.30;;;;;;;14.10;56.18;95968.22;5345345;26;20056;-81
2023/01/18 11:32:05;;;;;;;5.20;1.60;;;;;;;13.55;55.51;95980.06;5345742;26;20052;-81
2023/01/18 11:34:33;;;;;;;3.08;1.42;;;;;;;13.54;57.70;95989.63;5326049;26;20049;-82
2023/01/18 11:37:01;;;;;;;3.00;1.55;;;;;;;13.80;56.60;95991.69;5325459;26;20064;-81
2023/01/18 11:39:35;;;;;;;4.45;1.70;;;;;;;13.76;56.71;95998.09;5325995;26;20182;-81
2023/01/18 11:42:19;;;;;;;5.47;1.87;;;;;;;14.18;53.79;95996.88;5345529;26;20057;-82
2023/01/18 11:44:59;;;;;;;3.85;1.65;;;;;;;14.15;56.18;96010.13;5325303;26;20044;-82
2023/01/18 11:47:33;;;;;;;3.72;1.50;;;;;;;14.79;54.75;96015.69;5345715;26;20118;-82
2023/01/18 11:50:06;;;;;;;4.37;1.73;;;;;;;13.74;55.90;96018.97;5346705;26;20064;-81
2023/01/18 11:52:59;;;;;;;4.73;1.87;;;;;;;12.98;58.66;96022.94;5329285;26;20057;-81
2023/01/18 11:55:37;;;;;;;3.58;1.60;;;;;;;13.62;56.32;96020.06;5327122;26;20048;-82
2023/01/18 11:58:15;;;;;;;3.67;1.50;;;;;;;13.71;54.91;96016.63;5326761;26;20065;-81
2023/01/18 12:01:10;;;;;;;3.25;1.65;;;;;;;14.01;54.41;96027.88;5326952;26;20121;-81
2023/01/18 12:04:22;;;;;;;2.95;1.60;;;;;;;14.60;56.07;96029.50;5327756;26;20099;-81
2023/01/18 12:07:02;;;;;;;4.40;1.80;;;;;;;13.75;54.71;96027.56;5304370;26;20055;-81
2023/01/18 12:09:50;;;;;;;3.28;1.60;;;;;;;12.79;59.40;96041.78;5346821;26;20122;-80
2023/01/18 12:12:26;;;;;;;4.45;1.55;;;;;;;12.25;60.94;96052.31;5326550;26;20106;-81
2023/01/18 12:15:27;;;;;;;3.25;1.40;;;;;;;13.04;58.22;96040.53;5346468;26;20386;-80
2023/01/18 12:17:58;;;;;;;4.93;1.70;;;;;;;12.69;60.16;96027.97;5346491;26;20044;-80
2023/01/18 12:20:45;;;;;;;2.40;1.48;;;;;;;13.29;57.41;96044.47;5328663;26;20069;-80
2023/01/18 12:23:24;;;;;;;4.97;1.70;;;;;;;13.62;56.36;96050.31;5326705;26;20060;-80
2023/01/18 12:26:19;;;;;;;3.95;1.80;;;;;;;12.68;60.64;96053.03;5346142;26;20052;-79
2023/01/18 12:29:05;;;;;;;5.37;2.00;;;;;;;12.34;61.42;96057.56;5326904;26;20464;-80
2023/01/18 12:31:41;;;;;;;4.55;1.65;;;;;;;11.92;63.30;96064.41;5346323;26;20371;-80
2023/01/18 12:34:19;;;;;;;4.20;1.70;;;;;;;10.76;66.93;96063.03;5346123;26;20075;-80
2023/01/18 12:37:43;;;;;;;6.95;2.60;;;;;;;11.32;66.22;96057.06;5327267;26;20052;-81
2023/01/18 12:40:22;;;;;;;8.52;2.60;;;;;;;11.14;67.12;96051.56;5234014;27;20053;-81
2023/01/18 12:42:49;;;;;;;10.00;3.05;;;;;;;10.41;71.12;96055.31;5234490;27;20113;-80